createdAt,value
2023-03-17T00:00:48.360Z,74.40
2023-03-17T00:03:25.938Z,67.90
2023-03-17T00:05:55.240Z,68.90
2023-03-17T00:08:37.206Z,70.10
2023-03-17T00:11:14.914Z,58.10
2023-03-17T00:13:44.665Z,64.70
2023-03-17T00:16:20.164Z,65.20
2023-03-17T00:18:50.510Z,71.50
2023-03-17T00:21:26.109Z,72.80
2023-03-17T00:23:55.440Z,74.00
2023-03-17T00:26:24.264Z,78.80
2023-03-17T00:28:54.784Z,83.80
2023-03-17T00:31:25.552Z,68.20
2023-03-17T00:33:55.213Z,80.70
2023-03-17T00:36:28.068Z,94.90
2023-03-17T00:38:56.417Z,79.10
2023-03-17T00:41:27.350Z,82.90
2023-03-17T00:43:55.664Z,87.00
2023-03-17T00:46:35.469Z,83.30
2023-03-17T00:49:14.313Z,83.70
2023-03-17T00:51:43.877Z,89.20
2023-03-17T00:54:13.771Z,86.90
2023-03-17T00:56:42.376Z,101.00
2023-03-17T00:59:20.647Z,99.80
2023-03-17T01:01:49.068Z,88.20
2023-03-17T01:04:17.304Z,85.50
2023-03-17T01:06:49.410Z,95.10
2023-03-17T01:09:24.251Z,89.10
2023-03-17T01:11:53.138Z,91.50
2023-03-17T01:14:21.725Z,83.10
2023-03-17T01:16:49.845Z,84.00
2023-03-17T01:19:18.098Z,78.30
2023-03-17T01:21:48.137Z,94.50
2023-03-17T01:24:16.214Z,82.20
2023-03-17T01:26:44.720Z,87.20
2023-03-17T01:29:13.929Z,93.00
2023-03-17T01:31:42.247Z,99.80
2023-03-17T01:34:11.616Z,100.30
2023-03-17T01:36:40.635Z,91.90
2023-03-17T01:39:09.392Z,94.50
2023-03-17T01:41:40.092Z,97.70
2023-03-17T01:44:17.028Z,93.00
2023-03-17T01:46:47.503Z,85.90
2023-03-17T01:49:19.471Z,89.00
2023-03-17T01:51:53.515Z,88.30
2023-03-17T01:54:24.703Z,88.00
2023-03-17T01:56:57.500Z,91.10
2023-03-17T01:59:31.763Z,77.20
2023-03-17T02:02:05.772Z,86.20
2023-03-17T02:04:34.642Z,81.10
2023-03-17T02:07:05.157Z,78.20
2023-03-17T02:09:34.347Z,82.30
2023-03-17T02:12:05.381Z,75.80
2023-03-17T02:14:34.200Z,82.70
2023-03-17T02:17:03.999Z,80.90
2023-03-17T02:19:32.090Z,80.50
2023-03-17T02:22:00.828Z,80.60
2023-03-17T02:24:41.525Z,79.40
2023-03-17T02:27:34.891Z,72.60
2023-03-17T02:30:04.948Z,90.40
2023-03-17T02:32:36.611Z,76.30
2023-03-17T02:35:07.229Z,78.40
2023-03-17T02:37:38.291Z,77.30
2023-03-17T02:40:07.902Z,71.40
2023-03-17T02:42:36.694Z,75.90
2023-03-17T02:45:06.548Z,78.70
2023-03-17T02:47:34.971Z,72.20
2023-03-17T02:50:04.857Z,79.00
2023-03-17T02:52:33.303Z,79.20
2023-03-17T02:55:01.416Z,80.30
2023-03-17T02:57:29.468Z,77.60
2023-03-17T02:59:57.626Z,80.90
2023-03-17T03:02:25.727Z,76.40
2023-03-17T03:04:54.277Z,70.10
2023-03-17T03:07:22.972Z,75.20
2023-03-17T03:09:51.327Z,77.10
2023-03-17T03:12:19.407Z,80.60
2023-03-17T03:14:47.714Z,80.30
2023-03-17T03:17:16.539Z,77.00
2023-03-17T03:19:44.979Z,80.90
2023-03-17T03:22:13.236Z,80.10
2023-03-17T03:24:41.736Z,71.70
2023-03-17T03:27:09.951Z,75.10
2023-03-17T03:29:38.368Z,78.30
2023-03-17T03:32:07.347Z,71.30
2023-03-17T03:34:35.619Z,84.30
2023-03-17T03:37:03.792Z,75.30
2023-03-17T03:39:32.003Z,78.90
2023-03-17T03:42:00.097Z,73.50
2023-03-17T03:44:28.268Z,75.40
2023-03-17T03:46:56.291Z,76.30
2023-03-17T03:49:25.608Z,65.70
2023-03-17T03:51:53.774Z,71.90
2023-03-17T03:54:22.688Z,69.40
2023-03-17T03:56:50.793Z,72.70
2023-03-17T03:59:18.966Z,69.80
2023-03-17T04:01:47.090Z,65.80
2023-03-17T04:04:15.507Z,64.20
2023-03-17T04:06:43.758Z,57.50
2023-03-17T04:09:12.730Z,71.80
2023-03-17T04:11:40.876Z,62.30
2023-03-17T04:14:09.074Z,56.20
2023-03-17T04:16:37.290Z,58.30
2023-03-17T04:19:05.424Z,59.70
2023-03-17T04:21:33.573Z,57.90
2023-03-17T04:24:01.608Z,58.70
2023-03-17T04:26:29.618Z,55.80
2023-03-17T04:28:58.652Z,58.30
2023-03-17T04:31:26.764Z,56.50
2023-03-17T04:33:54.884Z,57.90
2023-03-17T04:36:24.467Z,60.70
2023-03-17T04:38:52.790Z,60.90
2023-03-17T04:41:21.385Z,56.70
2023-03-17T04:43:49.680Z,60.20
2023-03-17T04:46:17.719Z,57.80
2023-03-17T04:48:45.782Z,56.00
2023-03-17T04:51:14.011Z,55.30
2023-03-17T04:53:42.060Z,53.70
2023-03-17T04:56:10.718Z,58.70
2023-03-17T04:58:39.832Z,51.00
2023-03-17T05:01:08.505Z,50.20
2023-03-17T05:03:36.697Z,53.20
2023-03-17T05:06:06.156Z,53.50
2023-03-17T05:08:34.420Z,51.80
2023-03-17T05:11:02.797Z,59.00
2023-03-17T05:13:31.062Z,49.00
2023-03-17T05:16:04.697Z,52.00
2023-03-17T05:18:37.261Z,51.90
2023-03-17T05:21:06.361Z,53.30
2023-03-17T05:23:35.200Z,48.90
2023-03-17T05:26:03.345Z,54.00
2023-03-17T05:28:32.489Z,45.20
2023-03-17T05:31:00.833Z,50.10
2023-03-17T05:33:29.173Z,53.70
2023-03-17T05:35:57.521Z,51.30
2023-03-17T05:38:25.892Z,48.80
2023-03-17T05:40:54.572Z,46.40
2023-03-17T05:43:22.704Z,43.90
2023-03-17T05:45:50.878Z,44.20
2023-03-17T05:48:19.148Z,51.70
2023-03-17T05:50:47.670Z,53.90
2023-03-17T05:53:16.289Z,59.50
2023-03-17T05:55:44.856Z,55.30
2023-03-17T05:58:15.594Z,46.00
2023-03-17T06:00:44.310Z,48.40
2023-03-17T06:03:12.849Z,44.50
2023-03-17T06:05:41.404Z,55.20
2023-03-17T06:08:10.327Z,44.90
2023-03-17T06:10:38.374Z,41.10
2023-03-17T06:13:06.471Z,42.80
2023-03-17T06:15:36.943Z,42.10
2023-03-17T06:18:05.863Z,47.30
2023-03-17T06:20:35.078Z,45.20
2023-03-17T06:23:05.607Z,40.10
2023-03-17T06:25:35.792Z,43.00
2023-03-17T06:28:06.487Z,41.30
2023-03-17T06:30:37.551Z,41.80
2023-03-17T06:33:08.274Z,61.50
2023-03-17T06:35:39.865Z,39.40
2023-03-17T06:38:08.125Z,47.40
2023-03-17T06:40:37.052Z,50.00
2023-03-17T06:43:05.261Z,41.20
2023-03-17T06:45:33.685Z,37.60
2023-03-17T06:48:02.321Z,36.90
2023-03-17T06:50:30.440Z,35.90
2023-03-17T06:52:58.620Z,39.30
2023-03-17T06:55:27.392Z,37.50
2023-03-17T06:57:55.675Z,35.70
2023-03-17T07:00:23.860Z,35.50
2023-03-17T07:02:52.664Z,37.00
2023-03-17T07:05:20.941Z,37.60
2023-03-17T07:07:50.139Z,29.20
2023-03-17T07:10:18.744Z,34.10
2023-03-17T07:12:47.017Z,34.60
2023-03-17T07:15:15.603Z,37.70
2023-03-17T07:17:43.648Z,31.60
2023-03-17T07:20:12.063Z,30.00
2023-03-17T07:22:40.952Z,31.80
2023-03-17T07:25:09.854Z,28.00
2023-03-17T07:27:38.500Z,31.40
2023-03-17T07:30:07.522Z,29.50
2023-03-17T07:32:36.300Z,28.80
2023-03-17T07:35:05.562Z,22.60
2023-03-17T07:37:33.892Z,23.10
2023-03-17T07:40:02.379Z,21.60
2023-03-17T07:42:30.476Z,23.20
2023-03-17T07:44:58.581Z,25.40
2023-03-17T07:47:28.983Z,24.50
2023-03-17T07:49:57.418Z,22.50
2023-03-17T07:52:25.630Z,22.60
2023-03-17T07:54:53.977Z,22.70
2023-03-17T07:57:22.453Z,26.20
2023-03-17T07:59:50.787Z,24.30
2023-03-17T08:02:19.672Z,24.50
2023-03-17T08:04:48.129Z,26.10
2023-03-17T08:07:16.498Z,25.30
2023-03-17T08:09:46.985Z,24.40
2023-03-17T08:12:15.236Z,24.10
2023-03-17T08:14:43.582Z,23.40
2023-03-17T08:17:13.604Z,23.80
2023-03-17T08:19:42.439Z,19.70
2023-03-17T08:22:10.948Z,17.50
2023-03-17T08:24:41.199Z,18.60
2023-03-17T08:27:09.650Z,15.60
2023-03-17T08:29:39.723Z,19.10
2023-03-17T08:32:08.819Z,16.60
2023-03-17T08:34:38.133Z,15.00
2023-03-17T08:37:10.040Z,16.10
2023-03-17T08:39:39.517Z,12.50
2023-03-17T08:42:08.314Z,15.20
2023-03-17T08:44:36.539Z,13.40
2023-03-17T08:47:05.799Z,14.40
2023-03-17T08:49:36.157Z,13.80
2023-03-17T08:52:04.709Z,17.20
2023-03-17T08:54:34.662Z,16.80
2023-03-17T08:57:04.127Z,14.80
2023-03-17T08:59:33.672Z,15.60
2023-03-17T09:02:01.754Z,11.40
2023-03-17T09:04:30.358Z,13.80
2023-03-17T09:07:03.647Z,10.00
2023-03-17T09:09:35.294Z,11.50
2023-03-17T09:12:06.342Z,10.90
2023-03-17T09:14:42.961Z,14.30
2023-03-17T09:17:14.497Z,12.00
2023-03-17T09:19:43.651Z,10.80
2023-03-17T09:22:14.478Z,12.70
2023-03-17T09:24:42.710Z,10.20
2023-03-17T09:27:11.200Z,12.20
2023-03-17T09:29:39.672Z,12.90
2023-03-17T09:32:08.806Z,13.00
2023-03-17T09:34:36.979Z,9.00
2023-03-17T09:37:05.190Z,15.40
2023-03-17T09:39:33.553Z,13.00
2023-03-17T09:42:19.777Z,14.20
2023-03-17T09:45:15.380Z,12.90
2023-03-17T09:50:22.388Z,9.20
2023-03-17T09:52:52.430Z,12.00
2023-03-17T09:55:29.006Z,15.90
2023-03-17T09:58:00.778Z,10.90
2023-03-17T10:00:31.156Z,10.90
2023-03-17T10:03:00.214Z,10.00
2023-03-17T10:05:35.180Z,10.30
2023-03-17T10:08:31.774Z,10.00
2023-03-17T10:11:35.289Z,9.10
2023-03-17T10:14:03.848Z,8.30
2023-03-17T10:17:01.885Z,9.00
2023-03-17T10:19:40.737Z,12.50
2023-03-17T10:22:23.706Z,8.80
2023-03-17T10:24:57.726Z,9.90
2023-03-17T10:27:34.479Z,9.30
2023-03-17T10:30:03.654Z,11.50
2023-03-17T10:32:38.018Z,14.80
2023-03-17T10:35:07.741Z,7.90
2023-03-17T10:37:36.756Z,9.30
2023-03-17T10:40:30.610Z,10.50
2023-03-17T10:43:08.035Z,7.80
2023-03-17T10:45:44.008Z,8.80
2023-03-17T10:48:19.191Z,10.30
2023-03-17T10:50:49.541Z,13.60
2023-03-17T10:53:28.214Z,9.20
2023-03-17T10:56:25.483Z,7.80
2023-03-17T10:59:17.995Z,8.40
2023-03-17T11:01:52.250Z,13.30
2023-03-17T11:04:35.155Z,14.70
2023-03-17T11:07:15.524Z,8.60
2023-03-17T11:09:48.953Z,8.40
2023-03-17T11:12:25.678Z,7.60
2023-03-17T11:15:03.379Z,13.90
2023-03-17T11:17:38.480Z,5.90
2023-03-17T11:20:43.439Z,7.00
2023-03-17T11:23:37.528Z,8.00
2023-03-17T11:26:16.830Z,5.70
2023-03-17T11:29:05.931Z,8.10
2023-03-17T11:31:43.851Z,5.10
2023-03-17T11:34:35.471Z,8.90
2023-03-17T11:37:18.918Z,8.40
2023-03-17T11:40:04.352Z,8.00
2023-03-17T11:42:39.656Z,7.00
2023-03-17T11:45:26.720Z,7.10
2023-03-17T11:48:08.748Z,5.40
2023-03-17T11:50:49.547Z,6.30
2023-03-17T11:53:18.186Z,7.40
2023-03-17T11:56:30.823Z,8.60
2023-03-17T11:59:02.133Z,6.90
2023-03-17T12:01:42.834Z,6.70
2023-03-17T12:04:22.080Z,7.50
2023-03-17T12:06:58.004Z,6.60
2023-03-17T12:09:46.531Z,6.70
2023-03-17T12:12:22.881Z,9.10
2023-03-17T12:14:54.193Z,7.80
2023-03-17T12:17:30.459Z,6.50
2023-03-17T12:20:34.078Z,7.90
2023-03-17T12:23:21.358Z,9.40
2023-03-17T12:29:09.313Z,9.20
2023-03-17T12:31:52.856Z,7.10
2023-03-17T12:34:28.884Z,6.50
2023-03-17T12:36:59.487Z,6.80
2023-03-17T12:39:37.810Z,6.80
2023-03-17T12:42:27.451Z,8.80
2023-03-17T12:45:17.069Z,8.40
2023-03-17T12:48:06.069Z,6.00
2023-03-17T12:50:43.021Z,9.50
2023-03-17T12:53:32.845Z,6.70
2023-03-17T12:56:50.687Z,5.70
2023-03-17T12:59:26.257Z,9.80
2023-03-17T13:02:44.684Z,7.50
2023-03-17T13:05:19.816Z,6.50
2023-03-17T13:07:57.585Z,8.80
2023-03-17T13:10:48.775Z,5.80
2023-03-17T13:13:41.061Z,7.10
2023-03-17T13:16:39.545Z,8.10
2023-03-17T13:19:16.119Z,8.10
2023-03-17T13:22:14.355Z,7.10
2023-03-17T13:24:47.515Z,6.20
2023-03-17T13:27:38.844Z,7.40
2023-03-17T13:30:32.304Z,9.50
2023-03-17T13:33:31.076Z,7.70
2023-03-17T13:42:25.377Z,6.80
2023-03-17T13:45:37.732Z,7.50
2023-03-17T13:48:41.733Z,7.00
2023-03-17T13:51:26.374Z,8.00
2023-03-17T13:54:29.838Z,9.40
2023-03-17T13:57:26.797Z,6.50
2023-03-17T14:00:37.708Z,6.90
2023-03-17T14:03:35.978Z,8.10
2023-03-17T14:06:06.728Z,6.70
2023-03-17T14:09:08.361Z,9.20
2023-03-17T14:11:41.554Z,8.80
2023-03-17T14:14:32.661Z,7.90
2023-03-17T14:17:35.499Z,8.30
2023-03-17T14:20:19.881Z,9.40
2023-03-17T14:22:56.675Z,7.30
2023-03-17T14:25:39.048Z,6.90
2023-03-17T14:28:15.999Z,14.80
2023-03-17T14:30:56.914Z,8.10
2023-03-17T14:33:34.682Z,9.70
2023-03-17T14:36:06.399Z,9.90
2023-03-17T14:38:37.645Z,8.10
2023-03-17T14:41:07.532Z,10.40
2023-03-17T14:43:36.757Z,9.00
2023-03-17T14:46:13.249Z,6.90
2023-03-17T14:48:43.741Z,7.50
2023-03-17T14:51:23.555Z,6.80
2023-03-17T14:53:53.874Z,7.10
2023-03-17T14:56:27.460Z,8.30
2023-03-17T14:59:06.484Z,7.90
2023-03-17T15:01:42.532Z,6.70
2023-03-17T15:04:18.061Z,6.80
2023-03-17T15:06:52.023Z,6.70
2023-03-17T15:09:29.038Z,9.90
2023-03-17T15:12:07.211Z,9.10
2023-03-17T15:14:38.996Z,7.70
2023-03-17T15:17:27.630Z,9.60
2023-03-17T15:20:00.466Z,8.60
2023-03-17T15:22:34.554Z,6.60
2023-03-17T15:25:15.004Z,12.50
2023-03-17T15:27:43.820Z,13.90
2023-03-17T15:30:12.798Z,13.70
2023-03-17T15:32:41.019Z,10.00
2023-03-17T15:35:13.676Z,8.40
2023-03-17T15:37:42.275Z,11.20
2023-03-17T15:40:11.280Z,8.80
2023-03-17T15:42:39.843Z,10.10
2023-03-17T15:45:08.875Z,18.90
2023-03-17T15:47:39.999Z,12.00
2023-03-17T15:50:25.674Z,10.90
2023-03-17T15:52:55.707Z,10.70
2023-03-17T15:55:31.298Z,10.00
2023-03-17T15:58:00.125Z,12.00
2023-03-17T16:00:30.206Z,13.90
2023-03-17T16:03:22.053Z,10.40
2023-03-17T16:05:50.423Z,21.50
2023-03-17T16:08:19.105Z,73.50
2023-03-17T16:10:47.552Z,40.20
2023-03-17T16:13:15.785Z,45.30
2023-03-17T16:15:50.310Z,27.40
2023-03-17T16:18:28.515Z,66.30
2023-03-17T16:20:56.919Z,67.00
2023-03-17T16:23:28.730Z,43.60
2023-03-17T16:26:13.693Z,66.60
2023-03-17T16:28:44.959Z,66.50
2023-03-17T16:31:19.944Z,47.50
2023-03-17T16:33:49.377Z,54.00
2023-03-17T16:36:19.517Z,43.70
2023-03-17T16:38:49.641Z,34.80
2023-03-17T16:41:24.445Z,39.60
2023-03-17T16:43:58.180Z,27.70
2023-03-17T16:46:26.558Z,33.10
2023-03-17T16:48:56.213Z,25.70
2023-03-17T16:51:25.060Z,26.60
2023-03-17T16:53:53.285Z,24.40
2023-03-17T16:56:23.078Z,19.40
2023-03-17T16:58:51.265Z,19.20
2023-03-17T17:01:26.155Z,26.40
2023-03-17T17:03:54.756Z,17.30
2023-03-17T17:06:23.981Z,19.20
2023-03-17T17:08:52.464Z,15.20
2023-03-17T17:11:20.886Z,14.40
2023-03-17T17:13:49.395Z,13.30
2023-03-17T17:16:32.162Z,13.30
2023-03-17T17:19:01.294Z,13.20
2023-03-17T17:21:31.149Z,11.10
2023-03-17T17:23:59.316Z,11.70
2023-03-17T17:26:27.491Z,17.60
2023-03-17T17:28:55.648Z,14.20
2023-03-17T17:31:23.691Z,14.50
2023-03-17T17:33:51.903Z,15.30
2023-03-17T17:36:19.929Z,17.20
2023-03-17T17:38:48.026Z,18.20
2023-03-17T17:41:17.105Z,56.50
2023-03-17T17:43:46.239Z,94.50
2023-03-17T17:46:21.316Z,30.00
2023-03-17T17:48:50.154Z,39.00
2023-03-17T17:51:18.279Z,37.70
2023-03-17T17:53:46.304Z,54.10
2023-03-17T17:56:16.801Z,39.20
2023-03-17T17:58:45.234Z,26.90
2023-03-17T18:01:16.863Z,16.30
2023-03-17T18:03:45.697Z,15.30
2023-03-17T18:06:14.256Z,12.00
2023-03-17T18:08:43.537Z,12.00
2023-03-17T18:11:12.322Z,11.50
2023-03-17T18:13:41.010Z,14.60
2023-03-17T18:16:15.054Z,13.20
2023-03-17T18:18:45.640Z,15.10
2023-03-17T18:21:14.078Z,15.60
2023-03-17T18:23:46.980Z,13.00
2023-03-17T18:26:16.791Z,12.90
2023-03-17T18:28:45.225Z,35.60
2023-03-17T18:31:18.803Z,18.50
2023-03-17T18:33:49.359Z,18.50
2023-03-17T18:36:18.968Z,13.90
2023-03-17T18:38:47.135Z,17.50
2023-03-17T18:41:15.424Z,17.20
2023-03-17T18:43:44.911Z,28.40
2023-03-17T18:46:13.438Z,46.90
2023-03-17T18:48:41.879Z,31.00
2023-03-17T18:51:10.341Z,22.60
2023-03-17T18:53:39.244Z,16.90
2023-03-17T18:56:07.762Z,15.10
2023-03-17T18:58:36.457Z,17.10
2023-03-17T19:01:04.876Z,18.90
2023-03-17T19:03:33.757Z,22.20
2023-03-17T19:06:13.916Z,26.70
2023-03-17T19:08:43.264Z,20.40
2023-03-17T19:11:13.934Z,21.10
2023-03-17T19:13:42.752Z,18.70
2023-03-17T19:16:11.584Z,18.10
2023-03-17T19:18:42.215Z,20.60
2023-03-17T19:21:11.958Z,22.70
2023-03-17T19:23:41.458Z,17.60
2023-03-17T19:26:10.450Z,16.30
2023-03-17T19:28:38.814Z,19.50
2023-03-17T19:31:07.480Z,19.30
2023-03-17T19:33:36.481Z,20.00
2023-03-17T19:36:11.603Z,16.30
2023-03-17T19:38:40.997Z,17.70
2023-03-17T19:41:09.316Z,18.90
2023-03-17T19:43:41.109Z,15.50
2023-03-17T19:46:11.407Z,19.90
2023-03-17T19:48:40.704Z,18.80
2023-03-17T19:51:09.404Z,19.90
2023-03-17T19:53:37.805Z,18.70
2023-03-17T19:56:06.730Z,19.70
2023-03-17T19:58:34.929Z,17.20
2023-03-17T20:01:04.878Z,17.00
2023-03-17T20:03:33.802Z,17.70
2023-03-17T20:06:06.058Z,20.20
2023-03-17T20:08:35.803Z,22.60
2023-03-17T20:11:05.996Z,17.80
2023-03-17T20:13:35.864Z,17.20
2023-03-17T20:16:05.904Z,20.00
2023-03-17T20:18:35.085Z,20.30
2023-03-17T20:21:11.669Z,16.40
2023-03-17T20:23:39.863Z,20.20
2023-03-17T20:26:09.280Z,22.60
2023-03-17T20:28:38.725Z,21.70
2023-03-17T20:31:08.046Z,19.50
2023-03-17T20:33:36.458Z,17.50
2023-03-17T20:36:05.074Z,20.20
2023-03-17T20:38:36.877Z,19.30
2023-03-17T20:41:12.548Z,20.20
2023-03-17T20:43:41.766Z,17.80
2023-03-17T20:46:18.823Z,18.40
2023-03-17T20:48:52.078Z,20.70
2023-03-17T20:51:20.430Z,19.30
2023-03-17T20:53:49.824Z,19.20
2023-03-17T20:56:20.349Z,19.40
2023-03-17T20:58:50.077Z,23.30
2023-03-17T21:01:21.182Z,31.60
2023-03-17T21:03:50.316Z,133.60
2023-03-17T21:06:18.895Z,188.40
2023-03-17T21:08:46.985Z,42.90
2023-03-17T21:11:17.654Z,21.90
2023-03-17T21:13:47.094Z,23.70
2023-03-17T21:16:19.029Z,21.60
2023-03-17T21:18:47.871Z,20.00
2023-03-17T21:21:17.236Z,25.40
2023-03-17T21:23:45.821Z,27.50
2023-03-17T21:26:14.983Z,22.00
2023-03-17T21:28:43.888Z,19.30
2023-03-17T21:31:12.884Z,22.10
2023-03-17T21:33:42.238Z,27.40
2023-03-17T21:36:11.180Z,22.40
2023-03-17T21:38:39.304Z,18.30
2023-03-17T21:41:22.391Z,23.20
2023-03-17T21:43:50.641Z,23.20
2023-03-17T21:46:18.777Z,22.10
2023-03-17T21:48:46.917Z,22.60
2023-03-17T21:51:15.194Z,33.50
2023-03-17T21:53:43.561Z,19.60
2023-03-17T21:56:12.628Z,75.80
2023-03-17T21:58:41.236Z,25.90
2023-03-17T22:01:09.398Z,23.50
2023-03-17T22:03:39.587Z,25.00
2023-03-17T22:06:09.856Z,25.60
2023-03-17T22:08:38.146Z,66.20
2023-03-17T22:11:08.097Z,31.40
2023-03-17T22:13:36.741Z,25.10
2023-03-17T22:16:05.387Z,21.10
2023-03-17T22:18:33.557Z,22.10
2023-03-17T22:21:01.821Z,23.00
2023-03-17T22:23:30.404Z,25.80
2023-03-17T22:25:58.715Z,26.90
2023-03-17T22:28:26.862Z,33.10
2023-03-17T22:30:54.949Z,26.20
2023-03-17T22:33:23.302Z,27.60
2023-03-17T22:35:51.489Z,27.00
2023-03-17T22:38:19.725Z,43.50
2023-03-17T22:40:47.791Z,79.90
2023-03-17T22:43:15.972Z,80.60
2023-03-17T22:45:44.057Z,42.20
2023-03-17T22:48:12.098Z,34.50
2023-03-17T22:50:42.631Z,128.90
2023-03-17T22:53:10.740Z,138.80
2023-03-17T22:55:39.066Z,60.70
2023-03-17T22:58:07.170Z,28.20
2023-03-17T23:00:36.235Z,27.50
2023-03-17T23:03:04.425Z,55.60
2023-03-17T23:05:33.010Z,33.90
2023-03-17T23:08:01.254Z,27.20
2023-03-17T23:10:29.801Z,25.70
2023-03-17T23:12:58.276Z,30.30
2023-03-17T23:15:26.695Z,27.50
2023-03-17T23:17:54.878Z,24.90
2023-03-17T23:20:23.213Z,25.10
2023-03-17T23:22:51.519Z,25.00
2023-03-17T23:25:20.133Z,26.80
2023-03-17T23:27:49.110Z,32.30
2023-03-17T23:30:18.065Z,23.00
2023-03-17T23:32:46.898Z,41.90
2023-03-17T23:35:15.965Z,37.20
2023-03-17T23:37:44.054Z,22.20
2023-03-17T23:40:16.060Z,35.50
2023-03-17T23:42:46.085Z,43.60
2023-03-17T23:45:18.167Z,29.90
2023-03-17T23:47:47.397Z,23.90
2023-03-17T23:50:16.140Z,28.40
2023-03-17T23:52:45.031Z,39.10
2023-03-17T23:55:13.233Z,36.10
2023-03-17T23:57:41.998Z,23.90
